Time,TemperatureF,DewpointF,PressureIn,WindDirection,WindDirectionDegrees,WindSpeedMPH,WindSpeedGustMPH,Humidity,HourlyPrecipIn,Conditions,Clouds,dailyrainin,SoftwareType,DateUTC
2013-01-17 00:05:00,42.0,-99.9,29.97,WNW,302,5.0,7.0,-999,-99.99,,,-99.99,,2013-01-17 05:05:00,
2013-01-17 00:12:00,42.0,-99.9,29.97,WNW,297,8.0,10.0,-999,-99.99,,,-99.99,,2013-01-17 05:12:00,
2013-01-17 00:22:00,42.0,-99.9,29.97,NW,305,6.0,8.0,-999,-99.99,,,-99.99,,2013-01-17 05:22:00,
2013-01-17 00:33:00,42.0,-99.9,29.97,NW,312,5.0,6.0,-999,-99.99,,,-99.99,,2013-01-17 05:33:00,
2013-01-17 00:43:00,42.0,-99.9,29.97,NW,314,4.0,7.0,-999,-99.99,,,-99.99,,2013-01-17 05:43:00,
2013-01-17 00:53:00,42.0,-99.9,29.96,NW,319,3.0,5.0,-999,-99.99,,,-99.99,,2013-01-17 05:53:00,
2013-01-17 01:03:00,42.0,-99.9,29.96,NW,320,4.0,7.0,-999,-99.99,,,-99.99,,2013-01-17 06:03:00,
2013-01-17 01:12:00,43.0,-99.9,29.97,NNW,328,4.0,7.0,-999,-99.99,,,-99.99,,2013-01-17 06:12:00,
2013-01-17 01:22:00,43.0,-99.9,29.96,NNW,337,3.0,6.0,-999,-99.99,,,-99.99,,2013-01-17 06:22:00,
2013-01-17 01:33:00,43.0,-99.9,29.96,NNW,331,2.0,4.0,-999,-99.99,,,-99.99,,2013-01-17 06:33:00,
2013-01-17 01:42:00,43.0,-99.9,29.96,NNW,343,1.0,4.0,-999,-99.99,,,-99.99,,2013-01-17 06:42:00,
2013-01-17 01:53:00,43.0,-99.9,29.98,NW,317,3.0,5.0,-999,-99.99,,,-99.99,,2013-01-17 06:53:00,
2013-01-17 02:02:00,43.0,-99.9,29.98,NW,316,4.0,5.0,-999,-99.99,,,-99.99,,2013-01-17 07:02:00,
2013-01-17 02:12:00,43.0,-99.9,29.98,NW,324,4.0,6.0,-999,-99.99,,,-99.99,,2013-01-17 07:12:00,
2013-01-17 02:22:00,43.0,-99.9,29.97,NW,322,3.0,7.0,-999,-99.99,,,-99.99,,2013-01-17 07:22:00,
2013-01-17 02:33:00,43.0,-99.9,29.98,WNW,294,4.0,4.0,-999,-99.99,,,-99.99,,2013-01-17 07:33:00,
2013-01-17 02:43:00,43.0,-99.9,29.98,WNW,295,5.0,6.0,-999,-99.99,,,-99.99,,2013-01-17 07:43:00,
2013-01-17 02:53:00,43.0,-99.9,29.99,WNW,288,6.0,8.0,-999,-99.99,,,-99.99,,2013-01-17 07:53:00,
2013-01-17 03:02:00,43.0,-99.9,29.99,WNW,297,7.0,8.0,-999,-99.99,,,-99.99,,2013-01-17 08:02:00,
2013-01-17 03:12:00,43.0,-99.9,29.98,NW,308,5.0,6.0,-999,-99.99,,,-99.99,,2013-01-17 08:12:00,
2013-01-17 03:22:00,43.0,-99.9,29.99,WNW,293,6.0,7.0,-999,-99.99,,,-99.99,,2013-01-17 08:22:00,
2013-01-17 03:32:00,43.0,-99.9,29.99,WNW,292,6.0,8.0,-999,-99.99,,,-99.99,,2013-01-17 08:32:00,
2013-01-17 03:44:00,43.0,-99.9,29.99,WNW,286,7.0,8.0,-999,-99.99,,,-99.99,,2013-01-17 08:44:00,
2013-01-17 03:53:00,43.0,-99.9,29.99,WNW,284,8.0,9.0,-999,-99.99,,,-99.99,,2013-01-17 08:53:00,
2013-01-17 04:03:00,43.0,-99.9,29.99,WNW,283,8.0,10.0,-999,-99.99,,,-99.99,,2013-01-17 09:03:00,
2013-01-17 04:12:00,43.0,-99.9,30.00,West,277,9.0,11.0,-999,-99.99,,,-99.99,,2013-01-17 09:12:00,
2013-01-17 04:22:00,43.0,-99.9,29.98,West,277,7.0,8.0,-999,-99.99,,,-99.99,,2013-01-17 09:22:00,
2013-01-17 04:33:00,43.0,-99.9,29.98,WNW,290,6.0,8.0,-999,-99.99,,,-99.99,,2013-01-17 09:33:00,
2013-01-17 04:43:00,43.0,-99.9,29.97,WNW,283,6.0,8.0,-999,-99.99,,,-99.99,,2013-01-17 09:43:00,
2013-01-17 04:53:00,43.0,-99.9,29.98,West,272,7.0,7.0,-999,-99.99,,,-99.99,,2013-01-17 09:53:00,
2013-01-17 05:02:00,43.0,-99.9,29.98,West,273,8.0,9.0,-999,-99.99,,,-99.99,,2013-01-17 10:02:00,
2013-01-17 05:12:00,43.0,-99.9,29.98,WSW,254,7.0,8.0,-999,-99.99,,,-99.99,,2013-01-17 10:12:00,
2013-01-17 05:22:00,43.0,-99.9,29.99,West,264,8.0,10.0,-999,-99.99,,,-99.99,,2013-01-17 10:22:00,
2013-01-17 05:33:00,43.0,-99.9,29.98,West,263,8.0,9.0,-999,-99.99,,,-99.99,,2013-01-17 10:33:00,
2013-01-17 05:43:00,43.0,-99.9,29.98,West,263,8.0,9.0,-999,-99.99,,,-99.99,,2013-01-17 10:43:00,
2013-01-17 05:53:00,43.0,-99.9,29.99,West,265,7.0,7.0,-999,-99.99,,,-99.99,,2013-01-17 10:53:00,
2013-01-17 06:03:00,43.0,-99.9,29.99,West,269,7.0,9.0,-999,-99.99,,,-99.99,,2013-01-17 11:03:00,
2013-01-17 06:12:00,43.0,-99.9,30.01,West,264,9.0,9.0,-999,-99.99,,,-99.99,,2013-01-17 11:12:00,
2013-01-17 06:23:00,43.0,-99.9,30.01,WSW,256,9.0,10.0,-999,-99.99,,,-99.99,,2013-01-17 11:23:00,
2013-01-17 06:33:00,43.0,-99.9,30.02,WSW,257,9.0,9.0,-999,-99.99,,,-99.99,,2013-01-17 11:33:00,
2013-01-17 06:43:00,43.0,-99.9,30.02,WSW,258,8.0,10.0,-999,-99.99,,,-99.99,,2013-01-17 11:43:00,
2013-01-17 06:53:00,43.0,-99.9,30.02,West,267,8.0,9.0,-999,-99.99,,,-99.99,,2013-01-17 11:53:00,
2013-01-17 07:03:00,43.0,-99.9,30.04,West,261,10.0,11.0,-999,-99.99,,,-99.99,,2013-01-17 12:03:00,
2013-01-17 07:12:00,43.0,-99.9,30.04,WSW,250,9.0,11.0,-999,-99.99,,,-99.99,,2013-01-17 12:12:00,
2013-01-17 07:23:00,43.0,-99.9,30.04,West,263,9.0,11.0,-999,-99.99,,,-99.99,,2013-01-17 12:23:00,
2013-01-17 07:33:00,43.0,-99.9,30.04,WSW,257,8.0,10.0,-999,-99.99,,,-99.99,,2013-01-17 12:33:00,
2013-01-17 07:43:00,43.0,-99.9,30.04,West,262,8.0,9.0,-999,-99.99,,,-99.99,,2013-01-17 12:43:00,
2013-01-17 07:53:00,43.0,-99.9,30.05,WSW,255,8.0,9.0,-999,-99.99,,,-99.99,,2013-01-17 12:53:00,
2013-01-17 08:03:00,43.0,-99.9,30.05,WSW,256,7.0,9.0,-999,-99.99,,,-99.99,,2013-01-17 13:03:00,
2013-01-17 08:13:00,43.0,-99.9,30.04,WSW,243,6.0,9.0,-999,-99.99,,,-99.99,,2013-01-17 13:13:00,
2013-01-17 08:23:00,43.0,-99.9,30.05,West,268,9.0,11.0,-999,-99.99,,,-99.99,,2013-01-17 13:23:00,
2013-01-17 08:33:00,43.0,-99.9,30.06,West,272,9.0,10.0,-999,-99.99,,,-99.99,,2013-01-17 13:33:00,
2013-01-17 08:43:00,43.0,-99.9,30.06,West,277,8.0,9.0,-999,-99.99,,,-99.99,,2013-01-17 13:43:00,
2013-01-17 08:53:00,43.0,-99.9,30.07,West,266,10.0,11.0,-999,-99.99,,,-99.99,,2013-01-17 13:53:00,
2013-01-17 09:03:00,43.0,-99.9,30.07,West,272,10.0,11.0,-999,-99.99,,,-99.99,,2013-01-17 14:03:00,
2013-01-17 09:13:00,43.0,-99.9,30.08,WNW,284,8.0,12.0,-999,-99.99,,,-99.99,,2013-01-17 14:13:00,
2013-01-17 09:23:00,43.0,-99.9,30.09,WNW,290,7.0,9.0,-999,-99.99,,,-99.99,,2013-01-17 14:23:00,
2013-01-17 09:33:00,43.0,-99.9,30.09,WNW,296,6.0,9.0,-999,-99.99,,,-99.99,,2013-01-17 14:33:00,
2013-01-17 09:43:00,43.0,-99.9,30.08,NW,309,6.0,11.0,-999,-99.99,,,-99.99,,2013-01-17 14:43:00,
2013-01-17 09:53:00,43.0,-99.9,30.08,WNW,299,6.0,8.0,-999,-99.99,,,-99.99,,2013-01-17 14:53:00,
2013-01-17 10:03:00,42.0,-99.9,30.08,WNW,295,4.0,7.0,-999,-99.99,,,-99.99,,2013-01-17 15:03:00,
2013-01-17 10:13:00,43.0,-99.9,30.11,WNW,283,9.0,11.0,-999,-99.99,,,-99.99,,2013-01-17 15:13:00,
2013-01-17 10:23:00,43.0,-99.9,30.11,West,280,8.0,10.0,-999,-99.99,,,-99.99,,2013-01-17 15:23:00,
2013-01-17 10:33:00,43.0,-99.9,30.10,West,274,9.0,10.0,-999,-99.99,,,-99.99,,2013-01-17 15:33:00,
2013-01-17 10:44:00,43.0,-99.9,30.10,West,280,7.0,9.0,-999,-99.99,,,-99.99,,2013-01-17 15:44:00,
2013-01-17 10:53:00,43.0,-99.9,30.10,NW,311,8.0,10.0,-999,-99.99,,,-99.99,,2013-01-17 15:53:00,
2013-01-17 11:03:00,43.0,-99.9,30.09,NW,317,7.0,9.0,-999,-99.99,,,-99.99,,2013-01-17 16:03:00,
2013-01-17 11:13:00,43.0,-99.9,30.11,NW,326,7.0,11.0,-999,-99.99,,,-99.99,,2013-01-17 16:13:00,
2013-01-17 11:23:00,43.0,-99.9,30.09,NNW,343,2.0,6.0,-999,-99.99,,,-99.99,,2013-01-17 16:23:00,
2013-01-17 11:34:00,43.0,-99.9,30.09,NNW,337,6.0,8.0,-999,-99.99,,,-99.99,,2013-01-17 16:34:00,
2013-01-17 11:44:00,43.0,-99.9,30.09,NNW,337,7.0,11.0,-999,-99.99,,,-99.99,,2013-01-17 16:44:00,
2013-01-17 11:53:00,42.0,-99.9,30.08,NNW,339,8.0,12.0,-999,-99.99,,,-99.99,,2013-01-17 16:53:00,
2013-01-17 12:03:00,42.0,-99.9,30.08,NNW,335,9.0,12.0,-999,-99.99,,,-99.99,,2013-01-17 17:03:00,
2013-01-17 12:13:00,42.0,-99.9,30.08,NNW,338,11.0,16.0,-999,-99.99,,,-99.99,,2013-01-17 17:13:00,
2013-01-17 12:23:00,42.0,-99.9,30.07,NNW,342,10.0,14.0,-999,-99.99,,,-99.99,,2013-01-17 17:23:00,
2013-01-17 12:33:00,42.0,-99.9,30.08,NNW,339,13.0,17.0,-999,-99.99,,,-99.99,,2013-01-17 17:33:00,
2013-01-17 12:43:00,42.0,-99.9,30.08,NNW,339,11.0,15.0,-999,-99.99,,,-99.99,,2013-01-17 17:43:00,
2013-01-17 12:54:00,42.0,-99.9,30.07,NNW,332,10.0,13.0,-999,-99.99,,,-99.99,,2013-01-17 17:54:00,
2013-01-17 13:04:00,42.0,-99.9,30.07,NNW,334,12.0,15.0,-999,-99.99,,,-99.99,,2013-01-17 18:04:00,
2013-01-17 13:13:00,42.0,-99.9,30.06,NNW,345,11.0,15.0,-999,-99.99,,,-99.99,,2013-01-17 18:13:00,
2013-01-17 13:23:00,42.0,-99.9,30.06,NNW,345,9.0,13.0,-999,-99.99,,,-99.99,,2013-01-17 18:23:00,
2013-01-17 13:34:00,42.0,-99.9,30.04,North,354,9.0,13.0,-999,-99.99,,,-99.99,,2013-01-17 18:34:00,
2013-01-17 13:44:00,42.0,-99.9,30.05,North,351,9.0,13.0,-999,-99.99,,,-99.99,,2013-01-17 18:44:00,
2013-01-17 13:54:00,42.0,-99.9,30.05,North,354,11.0,15.0,-999,-99.99,,,-99.99,,2013-01-17 18:54:00,
2013-01-17 14:04:00,41.0,-99.9,30.05,North,8,9.0,13.0,-999,-99.99,,,-99.99,,2013-01-17 19:04:00,
2013-01-17 14:13:00,41.0,-99.9,30.05,NNE,12,9.0,13.0,-999,-99.99,,,-99.99,,2013-01-17 19:13:00,
2013-01-17 14:23:00,41.0,-99.9,30.06,North,10,7.0,12.0,-999,-99.99,,,-99.99,,2013-01-17 19:23:00,
2013-01-17 14:33:00,41.0,-99.9,30.05,NNE,15,8.0,12.0,-999,-99.99,,,-99.99,,2013-01-17 19:33:00,
2013-01-17 14:43:00,40.0,-99.9,30.04,NNE,22,4.0,6.0,-999,-99.99,,,-99.99,,2013-01-17 19:43:00,
2013-01-17 14:54:00,39.0,-99.9,30.05,NE,43,5.0,9.0,-999,-99.99,,,-99.99,,2013-01-17 19:54:00,
2013-01-17 15:03:00,39.0,-99.9,30.05,East,92,4.0,5.0,-999,-99.99,,,-99.99,,2013-01-17 20:03:00,
2013-01-17 15:13:00,39.0,-99.9,30.06,ESE,113,2.0,3.0,-999,-99.99,,,-99.99,,2013-01-17 20:13:00,
2013-01-17 15:23:00,39.0,-99.9,30.08,SE,125,2.0,3.0,-999,-99.99,,,-99.99,,2013-01-17 20:23:00,
2013-01-17 15:34:00,39.0,-99.9,30.07,ESE,117,3.0,4.0,-999,-99.99,,,-99.99,,2013-01-17 20:34:00,
2013-01-17 15:44:00,39.0,-99.9,30.07,ESE,121,3.0,4.0,-999,-99.99,,,-99.99,,2013-01-17 20:44:00,
2013-01-17 15:54:00,39.0,-99.9,30.06,SE,138,4.0,5.0,-999,-99.99,,,-99.99,,2013-01-17 20:54:00,
2013-01-17 16:03:00,39.0,-99.9,30.07,SSE,162,5.0,6.0,-999,-99.99,,,-99.99,,2013-01-17 21:03:00,
2013-01-17 16:13:00,39.0,-99.9,30.07,SSE,154,4.0,5.0,-999,-99.99,,,-99.99,,2013-01-17 21:13:00,
2013-01-17 16:24:00,39.0,-99.9,30.07,SE,137,3.0,4.0,-999,-99.99,,,-99.99,,2013-01-17 21:24:00,
2013-01-17 16:34:00,39.0,-99.9,30.08,SSE,148,4.0,5.0,-999,-99.99,,,-99.99,,2013-01-17 21:34:00,
2013-01-17 16:43:00,39.0,-99.9,30.09,SSW,205,0.0,1.0,-999,-99.99,,,-99.99,,2013-01-17 21:43:00,
2013-01-17 16:53:00,39.0,-99.9,30.10,SW,228,1.0,1.0,-999,-99.99,,,-99.99,,2013-01-17 21:53:00,
2013-01-17 17:04:00,40.0,-99.9,30.08,ENE,78,1.0,2.0,-999,-99.99,,,-99.99,,2013-01-17 22:04:00,
2013-01-17 17:12:00,39.0,-99.9,30.08,NNE,23,1.0,2.0,-999,-99.99,,,-99.99,,2013-01-17 22:12:00,
2013-01-17 17:23:00,40.0,-99.9,30.09,ESE,109,1.0,1.0,-999,-99.99,,,-99.99,,2013-01-17 22:23:00,
2013-01-17 17:33:00,40.0,-99.9,30.08,ESE,102,1.0,2.0,-999,-99.99,,,-99.99,,2013-01-17 22:33:00,
2013-01-17 17:43:00,39.0,-99.9,30.08,NE,37,2.0,4.0,-999,-99.99,,,-99.99,,2013-01-17 22:43:00,
2013-01-17 17:53:00,40.0,-99.9,30.07,East,94,2.0,2.0,-999,-99.99,,,-99.99,,2013-01-17 22:53:00,
2013-01-17 18:03:00,40.0,-99.9,30.07,ESE,123,2.0,3.0,-999,-99.99,,,-99.99,,2013-01-17 23:03:00,
2013-01-17 18:12:00,39.0,-99.9,30.07,NNE,31,1.0,2.0,-999,-99.99,,,-99.99,,2013-01-17 23:12:00,
2013-01-17 18:23:00,40.0,-99.9,30.07,WSW,243,0.0,1.0,-999,-99.99,,,-99.99,,2013-01-17 23:23:00,
2013-01-17 18:33:00,40.0,-99.9,30.07,SE,141,1.0,2.0,-999,-99.99,,,-99.99,,2013-01-17 23:33:00,
2013-01-17 18:43:00,39.0,-99.9,30.07,SE,131,2.0,3.0,-999,-99.99,,,-99.99,,2013-01-17 23:43:00,
2013-01-17 18:53:00,39.0,-99.9,30.08,SSE,167,3.0,3.0,-999,-99.99,,,-99.99,,2013-01-17 23:53:00,
2013-01-17 19:03:00,39.0,-99.9,30.07,SSE,162,4.0,5.0,-999,-99.99,,,-99.99,,2013-01-18 00:03:00,
2013-01-17 19:13:00,39.0,-99.9,30.07,South,184,4.0,5.0,-999,-99.99,,,-99.99,,2013-01-18 00:13:00,
2013-01-17 19:23:00,39.0,-99.9,30.08,SSW,196,3.0,4.0,-999,-99.99,,,-99.99,,2013-01-18 00:23:00,
2013-01-17 19:33:00,39.0,-99.9,30.08,SSW,196,3.0,4.0,-999,-99.99,,,-99.99,,2013-01-18 00:33:00,
2013-01-17 19:43:00,39.0,-99.9,30.07,WNW,299,0.0,2.0,-999,-99.99,,,-99.99,,2013-01-18 00:43:00,
2013-01-17 19:53:00,40.0,-99.9,30.09,NW,305,4.0,5.0,-999,-99.99,,,-99.99,,2013-01-18 00:53:00,
2013-01-17 20:03:00,40.0,-99.9,30.09,NW,322,9.0,11.0,-999,-99.99,,,-99.99,,2013-01-18 01:03:00,
2013-01-17 20:13:00,41.0,-99.9,30.08,North,354,7.0,10.0,-999,-99.99,,,-99.99,,2013-01-18 01:13:00,
2013-01-17 20:23:00,41.0,-99.9,30.06,NNW,344,9.0,13.0,-999,-99.99,,,-99.99,,2013-01-18 01:23:00,
2013-01-17 20:33:00,41.0,-99.9,30.06,NNW,348,7.0,11.0,-999,-99.99,,,-99.99,,2013-01-18 01:33:00,
2013-01-17 20:43:00,41.0,-99.9,30.06,North,356,7.0,11.0,-999,-99.99,,,-99.99,,2013-01-18 01:43:00,
2013-01-17 20:53:00,40.0,-99.9,30.06,North,357,9.0,12.0,-999,-99.99,,,-99.99,,2013-01-18 01:53:00,
2013-01-17 21:03:00,40.0,-99.9,30.05,North,1,7.0,11.0,-999,-99.99,,,-99.99,,2013-01-18 02:03:00,
2013-01-17 21:12:00,40.0,-99.9,30.05,North,354,9.0,14.0,-999,-99.99,,,-99.99,,2013-01-18 02:12:00,
2013-01-17 21:23:00,40.0,-99.9,30.05,NNW,346,11.0,16.0,-999,-99.99,,,-99.99,,2013-01-18 02:23:00,
2013-01-17 21:33:00,40.0,-99.9,30.03,North,351,4.0,8.0,-999,-99.99,,,-99.99,,2013-01-18 02:33:00,
2013-01-17 21:43:00,40.0,-99.9,30.02,North,1,7.0,11.0,-999,-99.99,,,-99.99,,2013-01-18 02:43:00,
2013-01-17 21:53:00,40.0,-99.9,30.01,North,355,6.0,12.0,-999,-99.99,,,-99.99,,2013-01-18 02:53:00,
2013-01-17 22:03:00,40.0,-99.9,30.01,North,3,4.0,8.0,-999,-99.99,,,-99.99,,2013-01-18 03:03:00,
2013-01-17 22:13:00,40.0,-99.9,30.00,NNE,31,2.0,5.0,-999,-99.99,,,-99.99,,2013-01-18 03:13:00,
2013-01-17 22:23:00,40.0,-99.9,30.01,North,6,3.0,5.0,-999,-99.99,,,-99.99,,2013-01-18 03:23:00,
2013-01-17 22:33:00,40.0,-99.9,30.02,North,4,3.0,6.0,-999,-99.99,,,-99.99,,2013-01-18 03:33:00,
2013-01-17 22:43:00,40.0,-99.9,30.03,North,351,6.0,11.0,-999,-99.99,,,-99.99,,2013-01-18 03:43:00,
2013-01-17 22:53:00,39.0,-99.9,30.03,NNW,340,7.0,13.0,-999,-99.99,,,-99.99,,2013-01-18 03:53:00,
2013-01-17 23:03:00,38.0,-99.9,29.99,North,352,8.0,16.0,-999,-99.99,,,-99.99,,2013-01-18 04:03:00,
2013-01-17 23:12:00,37.0,-99.9,30.04,North,351,6.0,15.0,-999,-99.99,,,-99.99,,2013-01-18 04:12:00,
2013-01-17 23:22:00,37.0,-99.9,30.04,North,353,6.0,11.0,-999,-99.99,,,-99.99,,2013-01-18 04:22:00,
2013-01-17 23:33:00,36.0,-99.9,30.02,North,359,6.0,13.0,-999,-99.99,,,-99.99,,2013-01-18 04:33:00,
2013-01-17 23:43:00,36.0,-99.9,30.06,North,-999,5.0,11.0,-999,-99.99,,,-99.99,,2013-01-18 04:43:00,
2013-01-17 23:53:00,36.0,-99.9,30.03,North,6,5.0,11.0,-999,-99.99,,,-99.99,,2013-01-18 04:53:00,